Flight Track Log - Related Links

Times and Time Zones

All times are in EDT time to prevent confusion due to time zone crossing. See the ASQ5389 flight status page for this flight to view local times or setup timezone preferences in your user account.

Time Position Orientation Groundspeed Altitude Reporting Facility
EDT Latitude Longitude Course Direction KTS MPH feet Rate Location/Type
Tue 09:29:15 AM 35.0333 -89.9667 180° South 136 157 800  Level KMEM
Tue 09:30:16 AM 34.9833 -89.9667 180° South 197 227 2,700 2,132 Climbing KMEM
Tue 09:31:16 AM 34.9333 -89.9167 141° Southeast 284 327 5,100 2,150 Climbing KMEM
Tue 09:32:16 AM 34.9333 -89.8333 90° East 291 335 7,000 1,667 Climbing KMEM
Tue 09:33:22 AM 34.9833 -89.7333 59° Northeast 309 356 8,600 1,903 Climbing KMEM
Tue 09:34:41 AM 35.0322 -89.6142 63° Northeast 328 377 11,600 1,856 Climbing Memphis Center
Tue 09:35:41 AM 35.0775 -89.5069 63° Northeast 345 397 12,900 1,350 Climbing Memphis Center
Tue 09:36:41 AM 35.1286 -89.3922 61° Northeast 367 422 14,300 1,450 Climbing Memphis Center
Tue 09:37:41 AM 35.1800 -89.2747 62° Northeast 384 442 15,800 1,500 Climbing Memphis Center
Tue 09:38:41 AM 35.2392 -89.1394 62° Northeast 397 457 17,300 1,350 Climbing Memphis Center
Tue 09:39:41 AM 35.2878 -89.0139 65° Northeast 407 468 18,500 1,200 Climbing Memphis Center
Tue 09:40:41 AM 35.3386 -88.8833 64° Northeast 413 475 19,700 1,200 Climbing Memphis Center
Tue 09:41:41 AM 35.3869 -88.7450 67° East 427 491 20,900 650 Climbing Memphis Center
Tue 09:42:41 AM 35.4372 -88.6064 66° East 432 497 21,000 650 Climbing Memphis Center
Tue 09:43:41 AM 35.4933 -88.4625 64° Northeast 445 512 22,200 1,000 Climbing Memphis Center
Tue 09:44:41 AM 35.5475 -88.3208 65° Northeast 450 518 23,000 900 Climbing Memphis Center
Tue 09:45:41 AM 35.5825 -88.1667 74° East 450 518 24,000 900 Climbing Memphis Center
Tue 09:46:41 AM 35.5942 -88.0133 85° East 451 519 24,800 750 Climbing Memphis Center
Tue 09:47:41 AM 35.6100 -87.8544 83° East 462 532 25,500 650 Climbing Memphis Center
Tue 09:48:41 AM 35.6253 -87.6906 83° East 479 551 26,100 500 Climbing Memphis Center
Tue 09:49:41 AM 35.6381 -87.5217 85° East 484 557 26,500 400 Climbing Memphis Center
Tue 09:50:41 AM 35.6531 -87.3525 84° East 490 564 26,900 350 Climbing Memphis Center
Tue 09:51:41 AM 35.6658 -87.2011 84° East 490 564 27,200 350 Climbing Memphis Center
Tue 09:52:41 AM 35.6803 -87.0294 84° East 502 578 27,600 450 Climbing Memphis Center
Tue 09:53:41 AM 35.6942 -86.8575 84° East 502 578 28,100 550 Climbing Memphis Center
Tue 09:54:41 AM 35.7081 -86.6908 84° East 497 572 28,700 450 Climbing Memphis Center
Tue 09:55:41 AM 35.7217 -86.5189 84° East 502 578 29,000 150 Climbing Memphis Center
Tue 09:56:41 AM 35.7350 -86.3469 84° East 502 578 29,000  Level Memphis Center
Tue 09:57:41 AM 35.7500 -86.1697 84° East 502 578 29,000  Level Memphis Center
Tue 09:58:41 AM 35.7647 -85.9925 84° East 515 593 29,000  Level Memphis Center
Tue 09:59:41 AM 35.7753 -85.8206 86° East 515 593 29,000 250 Level Memphis Center
Tue 10:00:41 AM 35.7894 -85.6431 84° East 515 593 29,500 625 Climbing Memphis Center
Tue 10:02:53 AM 35.8167 -85.2578 85° East 505 581 31,000 469 Climbing Atlanta Center
Tue 10:03:53 AM 35.8286 -85.0864 85° East 500 575 31,000  Level Atlanta Center
Tue 10:04:53 AM 35.8403 -84.9044 85° East 504 580 31,000  Level Atlanta Center
Tue 10:05:53 AM 35.8519 -84.7433 85° East 523 602 31,000  Level Atlanta Center
Tue 10:06:53 AM 35.8631 -84.5742 85° East 515 593 31,000  Level Atlanta Center
Tue 10:07:53 AM 35.8742 -84.3975 86° East 515 593 31,000 -200 Level Atlanta Center
Tue 10:08:53 AM 35.8850 -84.2181 86° East 515 593 30,600 -400 Descending Atlanta Center
Tue 10:09:53 AM 35.8978 -84.0361 85° East 520 598 30,200 -500 Descending Atlanta Center
Tue 10:10:53 AM 35.9183 -83.8567 82° East 520 598 29,600 -550 Descending Atlanta Center
Tue 10:11:53 AM 35.9806 -83.6922 65° Northeast 511 588 29,100 -300 Descending Atlanta Center
Tue 10:12:53 AM 36.0467 -83.5175 65° Northeast 516 594 29,000 -50 Descending Atlanta Center
Tue 10:13:53 AM 36.0961 -83.3758 67° East 506 582 29,000  Level Atlanta Center
Tue 10:14:53 AM 36.1597 -83.2003 66° East 500 575 29,000  Level Atlanta Center
Tue 10:15:53 AM 36.2189 -83.0403 65° Northeast 500 575 29,000  Level Atlanta Center
Tue 10:16:53 AM 36.2761 -82.8850 65° Northeast 500 575 29,000  Level Atlanta Center
Tue 10:17:53 AM 36.3308 -82.7269 67° East 505 581 29,000  Level Atlanta Center
Tue 10:18:53 AM 36.3872 -82.5686 66° East 505 581 29,000  Level Atlanta Center
Tue 10:19:53 AM 36.4458 -82.4103 65° Northeast 500 575 29,000  Level Atlanta Center
Tue 10:20:53 AM 36.5019 -82.2542 66° East 500 575 29,000  Level Atlanta Center
Tue 10:21:53 AM 36.5558 -82.0978 67° East 500 575 29,000  Level Atlanta Center
Tue 10:22:53 AM 36.6117 -81.9386 66° East 500 575 29,000  Level Atlanta Center
Tue 10:23:53 AM 36.6611 -81.7794 69° East 500 575 29,000  Level Atlanta Center
Tue 10:24:53 AM 36.7017 -81.6128 73° East 495 570 29,000 -600 Level Atlanta Center
Tue 10:25:53 AM 36.7361 -81.4589 74° East 495 570 27,800 -1,300 Descending Atlanta Center
Tue 10:26:53 AM 36.7781 -81.2786 74° East 500 575 26,400 -1,350 Descending Atlanta Center
Tue 10:27:53 AM 36.8097 -81.1219 76° East 483 556 25,100 -426 Descending Atlanta Center
Tue 10:30:10 AM 36.8933 -80.7681 73° East 478 550 25,000 -30 Descending Washington Center
Tue 10:31:10 AM 36.9272 -80.6067 75° East 473 544 25,000  Level Washington Center
Tue 10:32:09 AM 36.9681 -80.4272 74° East 478 550 25,000  Level Washington Center
Tue 10:33:10 AM 36.9997 -80.2628 76° East 478 550 25,000 -50 Level Washington Center
Tue 10:34:09 AM 36.9683 -80.0997 104° East 469 540 24,900 -353 Descending Washington Center
Tue 10:35:09 AM 36.9264 -79.9386 108° East 469 540 24,300 -595 Descending Washington Center
Tue 10:36:10 AM 36.8856 -79.7911 109° East 483 556 23,700 -595 Descending Washington Center
Tue 10:37:10 AM 36.8431 -79.6356 109° East 483 556 23,100 -504 Descending Washington Center
Tue 10:38:09 AM 36.8058 -79.4961 108° East 457 526 22,700 -800 Descending Washington Center
Tue 10:39:10 AM 36.7631 -79.3408 109° East 432 497 21,500 -1,636 Descending Washington Center
Tue 10:40:10 AM 36.6869 -79.2389 133° Southeast 412 474 19,400 -2,118 Descending Washington Center
Tue 10:41:09 AM 36.6019 -79.1494 140° Southeast 398 458 17,300 -2,169 Descending Washington Center
Tue 10:41:33 AM 36.5714 -79.1197 142° Southeast 389 448 16,400 -2,164 Descending Washington Center
Tue 10:42:10 AM 36.5250 -79.0683 138° Southeast 383 441 15,100 -2,000 Descending Washington Center
Tue 10:42:39 AM 36.4844 -79.0278 141° Southeast 370 426 14,200 -2,034 Descending Washington Center
Tue 10:43:09 AM 36.4458 -78.9875 140° Southeast 370 426 13,100 -1,973 Descending Washington Center
Tue 10:43:52 AM 36.3889 -78.9386 145° Southeast 349 402 11,800 -1,800 Descending Washington Center
Tue 10:44:09 AM 36.3619 -78.9269 161° South 356 410 11,300 -1,672 Descending Washington Center
Tue 10:44:53 AM 36.2981 -78.9089 167° South 330 380 10,100 -1,475 Descending Washington Center
Tue 10:45:10 AM 36.2833 -78.9031 162° South 335 386 9,800 -1,091 Descending Washington Center
Tue 10:45:48 AM 36.2256 -78.8853 166° South 289 333 9,100 -1,119 Descending Washington Center
Tue 10:46:09 AM 36.1964 -78.8789 170° South 305 351 8,700 -984 Descending Washington Center
Tue 10:46:49 AM 36.1489 -78.8639 166° South 278 320 8,100 -689 Descending Washington Center
Tue 10:47:10 AM 36.1219 -78.8578 170° South 289 333 8,000  Descending Washington Center
Tue 10:47:56 AM 36.0681 -78.8425 167° South 241 277 8,100 57 Climbing Washington Center
Tue 10:48:56 AM 36.0033 -78.8450 182° South 233 268 8,100 -694 Level Washington Center
Tue 10:49:57 AM 35.9464 -78.8683 198° South 225 259 6,700 -1,034 Descending Washington Center
Tue 10:50:52 AM 35.9014 -78.9128 219° Southwest 219 252 6,100 -500 Descending Washington Center
Tue 10:51:09 AM 35.8925 -78.9303 238° Southwest 219 252 6,100 -885 Level Washington Center
Tue 10:51:53 AM 35.8600 -78.9700 225° Southwest 223 257 5,200 -612 Descending Washington Center
Tue 10:52:47 AM 35.8192 -79.0169 223° Southwest 228 262 5,100 -470 Descending Washington Center
Tue 10:53:48 AM 35.7736 -79.0739 225° Southwest 225 259 4,300 -656 Descending Washington Center
Tue 10:54:55 AM 35.7236 -79.0742 180° South 174 200 3,700 -639 Descending Washington Center
Tue 10:55:50 AM 35.7272 -79.0231 85° East 168 193 3,000 -283 Descending Washington Center
Tue 10:57:02 AM 35.7500 -78.9575 67° East 178 205 3,100  Climbing Washington Center
Tue 10:57:57 AM 35.7822 -78.9181 45° Northeast 187 215 3,000 -569 Descending Washington Center
Tue 10:58:58 AM 35.8169 -78.8733 46° Northeast 170 196 2,000 -835 Descending Washington Center
Tue 10:59:52 AM 35.8406 -78.8436 46° Northeast 137 158 1,400 -730 Descending Washington Center
Tue 11:00:53 AM 35.8667 -78.8114 45° Northeast 132 152 600 -787 Descending Washington Center

Login

Don't have an account? Register now (free) for customized features, flight alerts, and more!